createdAt,value
2023-01-04T00:00:40.846Z,10.20
2023-01-04T00:05:46.339Z,10.19
2023-01-04T00:10:49.182Z,10.25
2023-01-04T00:15:52.131Z,10.29
2023-01-04T00:20:56.674Z,10.24
2023-01-04T00:25:59.525Z,10.16
2023-01-04T00:31:03.690Z,10.18
2023-01-04T00:36:12.063Z,10.11
2023-01-04T00:41:42.055Z,10.04
2023-01-04T00:46:38.105Z,10.09
2023-01-04T00:51:43.006Z,10.10
2023-01-04T00:56:45.833Z,9.80
2023-01-04T01:01:49.179Z,9.84
2023-01-04T01:06:53.753Z,10.01
2023-01-04T01:11:56.595Z,9.93
2023-01-04T01:16:59.668Z,10.10
2023-01-04T01:22:04.394Z,10.33
2023-01-04T01:27:07.387Z,10.23
2023-01-04T01:32:11.034Z,10.55
2023-01-04T01:37:15.542Z,10.32
2023-01-04T01:42:19.690Z,10.37
2023-01-04T01:47:24.201Z,10.32
2023-01-04T01:52:31.717Z,10.27
2023-01-04T01:57:35.257Z,10.28
2023-01-04T02:02:38.661Z,10.33
2023-01-04T02:07:43.702Z,10.17
2023-01-04T02:12:47.302Z,10.16
2023-01-04T02:17:52.110Z,10.19
2023-01-04T02:23:12.481Z,10.20
2023-01-04T02:28:26.713Z,10.19
2023-01-04T02:33:37.790Z,10.18
2023-01-04T02:38:46.286Z,10.19
2023-01-04T02:43:53.187Z,10.19
2023-01-04T02:48:59.251Z,10.61
2023-01-04T02:54:03.773Z,10.44
2023-01-04T02:59:24.142Z,10.39
2023-01-04T03:04:38.741Z,10.48
2023-01-04T03:09:43.906Z,10.41
2023-01-04T03:14:50.593Z,10.34
2023-01-04T03:19:57.186Z,10.20
2023-01-04T03:25:01.117Z,10.09
2023-01-04T03:30:06.333Z,10.15
2023-01-04T03:35:10.903Z,10.12
2023-01-04T03:40:25.580Z,10.05
2023-01-04T03:45:31.770Z,10.06
2023-01-04T03:50:37.849Z,10.00
2023-01-04T03:55:42.365Z,9.97
2023-01-04T04:00:46.939Z,9.87
2023-01-04T04:05:51.559Z,9.88
2023-01-04T04:10:54.912Z,9.80
2023-01-04T04:15:57.783Z,9.87
2023-01-04T04:21:02.329Z,9.56
2023-01-04T04:26:05.347Z,9.57
2023-01-04T04:31:08.223Z,9.57
2023-01-04T04:36:12.882Z,9.63
2023-01-04T04:41:15.823Z,9.50
2023-01-04T04:46:18.724Z,9.53
2023-01-04T04:51:23.279Z,9.44
2023-01-04T04:56:26.472Z,9.44
2023-01-04T05:01:29.366Z,9.33
2023-01-04T05:06:34.661Z,9.30
2023-01-04T05:11:37.522Z,9.49
2023-01-04T05:16:40.483Z,9.44
2023-01-04T05:21:45.072Z,9.48
2023-01-04T05:26:47.946Z,9.59
2023-01-04T05:31:50.856Z,9.71
2023-01-04T05:36:55.413Z,9.61
2023-01-04T05:41:58.286Z,9.57
2023-01-04T05:47:01.155Z,9.61
2023-01-04T05:52:05.677Z,9.75
2023-01-04T05:57:08.798Z,9.74
2023-01-04T06:02:16.042Z,9.76
2023-01-04T06:07:20.650Z,9.71
2023-01-04T06:12:23.532Z,9.64
2023-01-04T06:17:26.416Z,9.65
2023-01-04T06:22:30.952Z,9.73
2023-01-04T06:27:33.795Z,9.70
2023-01-04T06:32:36.720Z,9.65
2023-01-04T06:37:41.220Z,9.72
2023-01-04T06:42:44.047Z,9.70
2023-01-04T06:47:46.866Z,9.81
2023-01-04T06:52:51.399Z,9.74
2023-01-04T06:57:59.309Z,9.83
2023-01-04T07:03:12.648Z,9.84
2023-01-04T07:08:20.095Z,9.84
2023-01-04T07:13:22.949Z,9.79
2023-01-04T07:18:25.871Z,9.70
2023-01-04T07:23:30.396Z,9.59
2023-01-04T07:28:33.256Z,9.61
2023-01-04T07:33:36.123Z,9.60
2023-01-04T07:38:40.647Z,9.45
2023-01-04T07:43:43.481Z,9.50
2023-01-04T07:48:46.358Z,9.54
2023-01-04T07:53:50.934Z,9.47
2023-01-04T07:58:53.819Z,9.44
2023-01-04T08:03:56.656Z,9.43
2023-01-04T08:09:01.495Z,9.45
2023-01-04T08:14:04.600Z,9.54
2023-01-04T08:19:08.443Z,9.59
2023-01-04T08:24:13.751Z,9.60
2023-01-04T08:29:17.075Z,9.56
2023-01-04T08:34:19.989Z,9.57
2023-01-04T08:39:24.495Z,9.59
2023-01-04T08:44:27.327Z,9.53
2023-01-04T08:49:30.163Z,9.59
2023-01-04T08:59:33.596Z,9.73
2023-01-04T09:04:37.382Z,9.62
2023-01-04T09:09:41.148Z,9.58
2023-01-04T09:14:46.407Z,9.51
2023-01-04T09:19:50.078Z,9.58
2023-01-04T09:24:53.719Z,9.49
2023-01-04T09:29:59.045Z,9.34
2023-01-04T09:35:02.694Z,9.36
2023-01-04T09:40:07.497Z,9.35
2023-01-04T09:45:24.666Z,9.41
2023-01-04T09:50:33.456Z,9.37
2023-01-04T09:55:41.838Z,9.31
2023-01-04T10:00:51.042Z,9.30
2023-01-04T10:05:56.357Z,9.23
2023-01-04T10:11:19.259Z,9.28
2023-01-04T10:22:10.603Z,9.17
2023-01-04T10:27:25.116Z,9.20
2023-01-04T10:32:40.013Z,9.23
2023-01-04T10:37:44.154Z,9.23
2023-01-04T10:42:57.836Z,9.23
2023-01-04T10:48:08.968Z,9.18
2023-01-04T10:53:17.683Z,9.24
2023-01-04T10:58:27.558Z,9.23
2023-01-04T11:03:38.572Z,9.24
2023-01-04T11:08:50.645Z,9.25
2023-01-04T11:13:54.502Z,9.23
2023-01-04T11:19:00.268Z,9.04
2023-01-04T11:24:30.866Z,9.15
2023-01-04T11:29:38.622Z,9.21
2023-01-04T11:34:48.576Z,9.24
2023-01-04T11:39:52.206Z,9.24
2023-01-04T11:44:59.999Z,9.21
2023-01-04T11:50:06.416Z,9.19
2023-01-04T11:55:17.103Z,9.09
2023-01-04T12:00:21.647Z,9.06
2023-01-04T12:05:30.300Z,9.16
2023-01-04T12:10:34.449Z,9.18
2023-01-04T12:15:46.624Z,9.14
2023-01-04T12:20:52.035Z,8.99
2023-01-04T12:25:56.636Z,8.99
2023-01-04T12:31:31.010Z,9.04
2023-01-04T12:37:05.296Z,9.05
2023-01-04T12:42:11.593Z,8.92
2023-01-04T12:47:47.645Z,8.85
2023-01-04T12:53:11.193Z,8.72
2023-01-04T12:59:23.410Z,8.85
2023-01-04T13:04:28.559Z,8.77
2023-01-04T13:09:46.423Z,8.67
2023-01-04T13:14:55.290Z,8.69
2023-01-04T13:19:58.971Z,8.66
2023-01-04T13:25:04.918Z,8.66
2023-01-04T13:30:23.299Z,8.61
2023-01-04T13:35:26.968Z,8.67
2023-01-04T13:40:34.495Z,8.61
2023-01-04T13:46:02.094Z,8.54
2023-01-04T13:51:17.047Z,8.64
2023-01-04T13:56:23.910Z,8.53
2023-01-04T14:01:30.816Z,8.57
2023-01-04T14:06:40.627Z,8.61
2023-01-04T14:11:50.592Z,8.55
2023-01-04T14:17:10.056Z,8.55
2023-01-04T14:22:50.566Z,8.52
2023-01-04T14:28:19.668Z,8.42
2023-01-04T14:33:28.605Z,8.43
2023-01-04T14:38:37.719Z,8.45
2023-01-04T14:43:49.383Z,8.44
2023-01-04T14:48:53.079Z,8.28
2023-01-04T14:53:56.734Z,8.29
2023-01-04T14:59:02.068Z,8.30
2023-01-04T15:04:06.072Z,8.34
2023-01-04T15:09:11.491Z,8.34
2023-01-04T15:14:16.944Z,8.35
2023-01-04T15:19:20.586Z,8.40
2023-01-04T15:24:24.329Z,8.47
2023-01-04T15:29:30.694Z,8.53
2023-01-04T15:34:33.687Z,8.61
2023-01-04T15:39:37.529Z,8.62
2023-01-04T15:44:44.429Z,8.72
2023-01-04T15:49:48.094Z,8.69
2023-01-04T15:54:51.739Z,8.69
2023-01-04T15:59:57.189Z,8.72
2023-01-04T16:05:00.861Z,8.68
2023-01-04T16:10:04.847Z,8.59
2023-01-04T16:15:12.551Z,8.62
2023-01-04T16:20:17.635Z,8.69
2023-01-04T16:25:21.310Z,8.75
2023-01-04T16:30:29.815Z,8.71
2023-01-04T16:35:33.668Z,8.82
2023-01-04T16:40:40.021Z,8.83
2023-01-04T16:45:44.594Z,8.84
2023-01-04T16:50:48.298Z,8.97
2023-01-04T16:55:51.967Z,9.23
2023-01-04T17:00:57.337Z,9.30
2023-01-04T17:06:01.028Z,9.27
2023-01-04T17:11:50.879Z,9.31
2023-01-04T17:16:37.192Z,9.35
2023-01-04T17:21:40.867Z,9.37
2023-01-04T17:26:44.651Z,9.45
2023-01-04T17:31:50.015Z,9.53
2023-01-04T17:36:53.761Z,9.65
2023-01-04T17:41:57.400Z,9.81
2023-01-04T17:47:02.783Z,9.87
2023-01-04T17:52:08.846Z,10.11
2023-01-04T17:57:12.704Z,10.39
2023-01-04T18:02:18.031Z,10.55
2023-01-04T18:07:21.696Z,10.77
2023-01-04T18:12:25.342Z,10.85
2023-01-04T18:17:31.682Z,10.91
2023-01-04T18:22:35.568Z,10.99
2023-01-04T18:27:39.264Z,11.05
2023-01-04T18:32:44.570Z,11.19
2023-01-04T18:37:48.195Z,11.27
2023-01-04T18:42:52.165Z,11.25
2023-01-04T18:47:58.242Z,11.23
2023-01-04T18:53:01.907Z,11.26
2023-01-04T18:58:05.564Z,11.26
2023-01-04T19:03:18.024Z,11.28
2023-01-04T19:08:22.150Z,11.29
2023-01-04T19:13:25.839Z,11.30
2023-01-04T19:18:31.171Z,11.25
2023-01-04T19:23:34.855Z,11.23
2023-01-04T19:28:38.524Z,11.19
2023-01-04T19:33:44.006Z,11.35
2023-01-04T19:38:47.747Z,11.44
2023-01-04T19:43:51.797Z,11.49
2023-01-04T19:48:57.137Z,11.44
2023-01-04T19:54:00.774Z,11.48
2023-01-04T19:59:04.433Z,11.47
2023-01-04T20:04:09.719Z,11.44
2023-01-04T20:09:13.343Z,11.48
2023-01-04T20:14:16.979Z,11.47
2023-01-04T20:19:22.335Z,11.49
2023-01-04T20:24:25.997Z,11.45
2023-01-04T20:29:29.669Z,11.43
2023-01-04T20:34:35.056Z,11.51
2023-01-04T20:39:38.883Z,11.52
2023-01-04T20:44:42.545Z,11.58
2023-01-04T20:49:48.234Z,11.62
2023-01-04T20:54:51.908Z,11.63
2023-01-04T20:59:56.249Z,11.63
2023-01-04T21:05:01.561Z,11.66
2023-01-04T21:10:05.752Z,11.70
2023-01-04T21:15:10.297Z,11.68
2023-01-04T21:20:15.828Z,11.73
2023-01-04T21:25:19.476Z,11.80
2023-01-04T21:30:23.146Z,11.83
2023-01-04T21:35:28.925Z,11.81
2023-01-04T21:40:32.651Z,11.80
2023-01-04T21:45:39.929Z,11.89
2023-01-04T21:50:45.313Z,11.91
2023-01-04T21:55:48.967Z,11.91
2023-01-04T22:00:52.629Z,12.00
2023-01-04T22:06:02.011Z,12.00
2023-01-04T22:11:05.819Z,12.06
2023-01-04T22:16:11.489Z,12.15
2023-01-04T22:21:18.692Z,12.18
2023-01-04T22:26:22.338Z,12.22
2023-01-04T22:31:26.002Z,12.26
2023-01-04T22:36:31.355Z,12.29
2023-01-04T22:41:35.271Z,12.33
2023-01-04T22:46:42.033Z,12.31
2023-01-04T22:51:47.446Z,12.36
2023-01-04T22:56:51.738Z,12.41
2023-01-04T23:01:55.406Z,12.42
2023-01-04T23:07:02.081Z,12.46
2023-01-04T23:12:06.059Z,12.36
2023-01-04T23:17:09.738Z,12.39
2023-01-04T23:22:15.151Z,12.43
2023-01-04T23:27:20.993Z,12.42
2023-01-04T23:32:24.622Z,12.46
2023-01-04T23:37:31.924Z,12.51
2023-01-04T23:42:35.862Z,12.58
2023-01-04T23:47:39.642Z,12.65
2023-01-04T23:52:45.017Z,12.78
2023-01-04T23:57:48.622Z,12.86
